Time;durP1;ratioP1;P1;durP2;ratioP2;P2;SDS_P1;SDS_P2;PMS_P1;PMS_P2;Temp;Humidity;BMP_temperature;BMP_pressure;BME280_temperature;BME280_humidity;BME280_pressure;Samples;Min_cycle;Max_cycle;Signal;HPM_P1;HPM_P2
2020/12/23 00:01:24;;;;;;;;;6.00;6.00;;;;;11.23;54.94;98334.03;4733782;28;103055;-74
2020/12/23 00:03:53;;;;;;;;;9.75;6.75;;;;;11.22;54.72;98335.91;4727201;28;103468;-73
2020/12/23 00:06:19;;;;;;;;;10.00;8.25;;;;;11.23;54.72;98343.00;4723285;28;102928;-74
2020/12/23 00:08:46;;;;;;;;;7.25;7.00;;;;;11.22;54.74;98335.06;4729455;28;104842;-74
2020/12/23 00:11:16;;;;;;;;;10.75;8.75;;;;;11.23;54.82;98328.63;4734176;28;104218;-74
2020/12/23 00:13:43;;;;;;;;;6.25;5.50;;;;;11.23;54.69;98345.69;4728900;28;103009;-74
2020/12/23 00:16:10;;;;;;;;;7.00;7.00;;;;;11.22;54.87;98345.91;4733580;28;103011;-73
2020/12/23 00:18:36;;;;;;;;;10.75;8.50;;;;;11.22;54.71;98341.31;4749079;28;105721;-74
2020/12/23 00:21:06;;;;;;;;;10.25;8.75;;;;;11.21;54.87;98347.78;4735516;28;103995;-74
2020/12/23 00:23:34;;;;;;;;;11.25;8.00;;;;;11.22;55.09;98351.31;4726645;29;105892;-73
2020/12/23 00:26:01;;;;;;;;;8.00;6.75;;;;;11.22;54.84;98354.00;4731108;29;103757;-74
2020/12/23 00:28:28;;;;;;;;;10.00;7.00;;;;;11.22;54.46;98370.25;4712331;29;104146;-74
2020/12/23 00:30:55;;;;;;;;;9.00;7.25;;;;;11.24;54.67;98377.13;4725876;29;103851;-73
2020/12/23 00:33:25;;;;;;;;;6.75;6.75;;;;;11.22;54.86;98379.22;4723700;29;104661;-74
2020/12/23 00:35:52;;;;;;;;;8.25;7.75;;;;;11.22;54.55;98378.38;4737089;28;110208;-74
2020/12/23 00:38:18;;;;;;;;;8.25;7.00;;;;;11.23;54.83;98391.69;4729546;29;109344;-74
2020/12/23 00:40:45;;;;;;;;;7.25;6.50;;;;;11.23;54.63;98383.59;4743845;28;103094;-74
2020/12/23 00:43:12;;;;;;;;;9.00;6.75;;;;;11.22;54.97;98379.22;4732927;28;104102;-73
2020/12/23 00:45:39;;;;;;;;;6.50;6.00;;;;;11.23;54.70;98375.47;4733971;28;103009;-74
2020/12/23 00:48:05;;;;;;;;;7.25;6.00;;;;;11.22;54.64;98373.78;4726625;28;104240;-73
2020/12/23 00:50:32;;;;;;;;;5.75;5.75;;;;;11.23;54.75;98386.28;4727679;29;106349;-74
2020/12/23 00:52:58;;;;;;;;;8.50;6.75;;;;;11.23;55.11;98380.88;4729422;28;102874;-74
2020/12/23 00:55:25;;;;;;;;;8.50;6.25;;;;;11.23;54.97;98372.75;4723859;29;103980;-73
2020/12/23 00:57:52;;;;;;;;;7.25;6.00;;;;;11.23;54.65;98374.63;4729578;28;103948;-74
2020/12/23 01:00:19;;;;;;;;;7.25;6.50;;;;;11.24;54.92;98376.31;4735036;28;102963;-73
2020/12/23 01:02:46;;;;;;;;;10.00;8.00;;;;;11.23;54.82;98367.34;4727111;29;102837;-74
2020/12/23 01:05:12;;;;;;;;;7.25;6.50;;;;;11.25;54.81;98377.97;4725497;28;108725;-74
2020/12/23 01:07:39;;;;;;;;;5.75;5.75;;;;;11.22;54.73;98379.22;4728187;28;105912;-74
2020/12/23 01:10:06;;;;;;;;;4.75;4.25;;;;;11.23;54.89;98375.47;4707739;28;103721;-73
2020/12/23 01:12:33;;;;;;;;;6.25;6.00;;;;;11.21;54.98;98372.16;4729784;28;103750;-74
2020/12/23 01:15:00;;;;;;;;;5.00;5.00;;;;;11.22;54.54;98381.91;4725979;29;103049;-74
2020/12/23 01:17:26;;;;;;;;;7.25;6.50;;;;;11.24;54.87;98379.00;4734082;28;104326;-74
2020/12/23 01:19:53;;;;;;;;;6.75;6.00;;;;;11.23;54.97;98372.75;4736116;28;102743;-73
2020/12/23 01:22:20;;;;;;;;;7.00;7.00;;;;;11.23;54.84;98370.06;4732222;28;102984;-74
2020/12/23 01:24:47;;;;;;;;;6.50;6.00;;;;;11.25;54.60;98365.28;4736570;29;102945;-73
2020/12/23 01:27:14;;;;;;;;;5.75;5.00;;;;;11.23;54.60;98364.63;4736757;28;104314;-73
2020/12/23 01:29:41;;;;;;;;;5.75;5.00;;;;;11.23;55.23;98361.94;4733366;28;102924;-74
2020/12/23 01:32:08;;;;;;;;;7.00;6.00;;;;;11.22;54.74;98362.97;4730510;28;102771;-74
2020/12/23 01:34:35;;;;;;;;;6.00;6.00;;;;;11.23;54.95;98370.06;4739550;28;103186;-74
2020/12/23 01:37:02;;;;;;;;;6.50;6.00;;;;;11.23;54.76;98374.63;4733749;28;103984;-74
2020/12/23 01:39:29;;;;;;;;;5.00;5.00;;;;;11.22;54.71;98376.50;4737074;28;102869;-74
2020/12/23 01:41:56;;;;;;;;;4.75;4.00;;;;;11.22;54.81;98383.78;4737454;29;103443;-74
2020/12/23 01:44:23;;;;;;;;;6.25;5.50;;;;;11.21;55.02;98380.28;4735860;29;103024;-74
2020/12/23 01:46:50;;;;;;;;;6.25;5.00;;;;;11.21;54.77;98377.56;4733676;28;109398;-73
2020/12/23 01:49:17;;;;;;;;;6.00;5.00;;;;;11.23;55.08;98380.88;4740067;28;106245;-74
2020/12/23 01:51:43;;;;;;;;;7.25;6.00;;;;;11.23;54.76;98386.28;4726982;29;103094;-74
2020/12/23 01:54:14;;;;;;;;;6.25;6.25;;;;;11.23;55.05;98399.00;4734781;29;103521;-74
2020/12/23 01:56:43;;;;;;;;;5.00;5.00;;;;;11.23;54.96;98386.28;4718360;29;104419;-74
2020/12/23 01:59:10;;;;;;;;;9.75;7.25;;;;;11.22;54.85;98390.03;4728842;29;103496;-73
2020/12/23 02:01:43;;;;;;;;;5.50;5.00;;;;;11.22;54.76;98387.31;4726271;28;103027;-74
2020/12/23 02:04:20;;;;;;;;;6.00;5.25;;;;;11.23;54.74;98389.00;4714137;29;102925;-74
2020/12/23 02:06:46;;;;;;;;;8.25;5.75;;;;;11.23;55.02;98391.69;4707960;28;103485;-74
2020/12/23 02:09:13;;;;;;;;;7.00;5.50;;;;;11.24;54.66;98397.94;4719108;29;103052;-74
2020/12/23 02:11:40;;;;;;;;;7.00;6.00;;;;;11.23;54.71;98380.88;4712596;28;103498;-74
2020/12/23 02:14:07;;;;;;;;;6.00;5.00;;;;;11.25;54.91;98389.63;4731943;29;103578;-74
2020/12/23 02:16:34;;;;;;;;;5.00;5.00;;;;;11.24;54.93;98398.78;4734526;28;104295;-74
2020/12/23 02:19:01;;;;;;;;;10.50;7.00;;;;;11.23;54.96;98399.00;4730397;28;103560;-74
2020/12/23 02:21:28;;;;;;;;;5.25;4.75;;;;;11.22;54.60;98395.44;4729386;28;102955;-74
2020/12/23 02:23:56;;;;;;;;;6.00;5.50;;;;;11.22;54.75;98379.22;4731040;28;102766;-74
2020/12/23 02:26:23;;;;;;;;;6.00;5.75;;;;;11.22;54.93;98371.09;4728500;28;109229;-74
2020/12/23 02:28:50;;;;;;;;;4.00;3.00;;;;;11.21;54.78;98361.31;4728404;28;103014;-74
2020/12/23 02:31:17;;;;;;;;;5.75;4.75;;;;;11.21;54.88;98364.03;4730971;28;102978;-74
2020/12/23 02:33:44;;;;;;;;;5.50;4.00;;;;;11.22;54.65;98362.13;4727233;28;102971;-74
2020/12/23 02:36:10;;;;;;;;;5.75;5.00;;;;;11.19;54.99;98363.41;4729699;28;104794;-74
2020/12/23 02:38:37;;;;;;;;;3.50;3.00;;;;;11.22;55.00;98370.25;4729727;28;102942;-74
2020/12/23 02:41:05;;;;;;;;;5.00;5.00;;;;;11.21;54.67;98369.44;4729381;28;104283;-74
2020/12/23 02:43:34;;;;;;;;;6.00;4.00;;;;;11.21;54.80;98380.28;4728792;28;103142;-74
2020/12/23 02:46:02;;;;;;;;;4.00;4.00;;;;;11.21;54.92;98366.75;4727263;29;103990;-74
2020/12/23 02:48:29;;;;;;;;;11.00;5.75;;;;;11.22;54.82;98367.53;4729592;28;102996;-74
2020/12/23 02:50:56;;;;;;;;;4.00;4.00;;;;;11.22;54.78;98359.44;4733806;28;102945;-74
2020/12/23 02:53:22;;;;;;;;;6.00;5.25;;;;;11.21;54.75;98366.75;4732704;28;103053;-73
2020/12/23 02:55:49;;;;;;;;;5.00;4.00;;;;;11.21;54.62;98377.56;4723403;28;104154;-74
2020/12/23 02:58:15;;;;;;;;;5.75;5.00;;;;;11.22;54.95;98373.78;4733216;28;103003;-74
2020/12/23 03:00:42;;;;;;;;;5.25;4.75;;;;;11.19;54.69;98368.81;4736467;28;105187;-74
2020/12/23 03:03:09;;;;;;;;;4.00;3.75;;;;;11.22;54.75;98379.22;4732704;28;102898;-74
2020/12/23 03:05:36;;;;;;;;;6.75;4.75;;;;;11.22;54.97;98375.66;4728805;28;104375;-74
2020/12/23 03:08:02;;;;;;;;;5.00;4.75;;;;;11.19;54.84;98374.22;4735273;28;103533;-74
2020/12/23 03:10:29;;;;;;;;;4.25;4.00;;;;;11.21;54.64;98377.56;4726321;28;104114;-74
2020/12/23 03:12:56;;;;;;;;;5.00;4.00;;;;;11.22;54.72;98375.66;4734506;28;103295;-73
2020/12/23 03:15:22;;;;;;;;;4.75;4.50;;;;;11.22;54.71;98378.38;4727524;28;109489;-74
2020/12/23 03:17:49;;;;;;;;;7.00;4.00;;;;;11.21;54.75;98382.97;4734127;28;102928;-74
2020/12/23 03:20:15;;;;;;;;;5.00;5.00;;;;;11.22;54.29;98381.91;4731226;29;103852;-74
2020/12/23 03:22:42;;;;;;;;;6.00;4.75;;;;;11.22;54.98;98379.22;4733032;28;103259;-73
2020/12/23 03:25:08;;;;;;;;;5.75;3.75;;;;;11.22;54.81;98390.03;4744604;28;105009;-74
2020/12/23 03:27:36;;;;;;;;;4.00;4.00;;;;;11.21;54.92;98380.28;4726094;28;102994;-74
2020/12/23 03:30:03;;;;;;;;;3.75;3.50;;;;;11.22;54.96;98378.38;4726304;28;105301;-74
2020/12/23 03:32:32;;;;;;;;;5.50;5.00;;;;;11.23;54.33;98382.75;4729466;28;103108;-74
2020/12/23 03:35:15;;;;;;;;;4.50;3.50;;;;;11.22;54.64;98379.22;4733494;28;103879;-74
2020/12/23 03:37:42;;;;;;;;;6.00;4.00;;;;;11.21;54.76;98371.31;4728340;28;103028;-74
2020/12/23 03:40:09;;;;;;;;;6.00;4.50;;;;;11.22;54.64;98378.38;4730776;28;102832;-74
2020/12/23 03:42:35;;;;;;;;;4.00;4.00;;;;;11.22;54.63;98378.38;4729827;29;102917;-74
2020/12/23 03:45:02;;;;;;;;;5.75;4.50;;;;;11.22;55.11;98390.03;4736120;28;104092;-74
2020/12/23 03:47:29;;;;;;;;;4.50;4.00;;;;;11.21;54.67;98374.88;4732807;28;102976;-74
2020/12/23 03:49:56;;;;;;;;;3.50;3.50;;;;;11.20;54.43;98365.06;4734994;28;102821;-74
2020/12/23 03:52:22;;;;;;;;;4.00;4.00;;;;;11.21;54.62;98364.03;4730667;28;102974;-74
2020/12/23 03:54:49;;;;;;;;;3.50;3.50;;;;;11.21;54.94;98358.63;4734415;28;103980;-74
2020/12/23 03:57:15;;;;;;;;;5.00;3.50;;;;;11.19;54.63;98358.00;4728407;28;103409;-74
2020/12/23 03:59:42;;;;;;;;;5.75;4.00;;;;;11.22;55.21;98354.84;4735087;28;102714;-74
2020/12/23 04:02:08;;;;;;;;;4.00;3.25;;;;;11.22;54.91;98367.53;4732709;28;103020;-74
2020/12/23 04:04:35;;;;;;;;;5.75;3.75;;;;;11.22;55.09;98364.84;4734427;28;104228;-74
2020/12/23 04:07:02;;;;;;;;;4.00;3.00;;;;;11.22;54.75;98368.38;4730099;29;103864;-74
2020/12/23 04:09:28;;;;;;;;;3.25;3.25;;;;;11.21;54.72;98368.63;4738697;28;102977;-74
2020/12/23 04:11:55;;;;;;;;;3.75;3.75;;;;;11.23;54.69;98371.91;4736392;28;102950;-73
2020/12/23 04:14:22;;;;;;;;;4.00;3.00;;;;;11.31;54.72;98371.69;4749376;28;104421;-73
2020/12/23 04:16:48;;;;;;;;;4.50;3.25;;;;;11.32;54.62;98363.38;4732466;28;103833;-73
2020/12/23 04:19:15;;;;;;;;;5.00;5.00;;;;;11.36;54.20;98378.16;4748176;28;102962;-74
2020/12/23 04:21:41;;;;;;;;;3.00;2.00;;;;;11.41;54.11;98374.81;4737218;28;103098;-74
2020/12/23 04:24:08;;;;;;;;;4.00;3.00;;;;;11.46;54.31;98377.72;4730388;28;104003;-74
2020/12/23 04:26:35;;;;;;;;;3.50;3.50;;;;;11.50;53.99;98381.66;4744702;28;102921;-74
2020/12/23 04:29:02;;;;;;;;;4.50;4.00;;;;;11.55;54.62;98376.44;4719940;29;102980;-74
2020/12/23 04:31:28;;;;;;;;;3.50;3.50;;;;;11.59;54.37;98370.38;4727335;28;103042;-74
2020/12/23 04:33:55;;;;;;;;;2.00;2.00;;;;;11.61;54.40;98371.00;4737314;28;103996;-74
2020/12/23 04:36:22;;;;;;;;;3.50;3.00;;;;;11.66;54.38;98375.78;4734643;28;102894;-74
2020/12/23 04:38:48;;;;;;;;;2.00;2.00;;;;;11.66;54.51;98374.97;4730705;28;103790;-74
2020/12/23 04:41:15;;;;;;;;;3.25;3.00;;;;;11.69;54.52;98363.69;4739497;28;105710;-74
2020/12/23 04:43:41;;;;;;;;;2.50;2.50;;;;;11.73;53.85;98375.78;4726329;28;103894;-74
2020/12/23 04:46:08;;;;;;;;;4.75;3.00;;;;;11.74;54.23;98372.03;4722796;28;106096;-74
2020/12/23 04:48:35;;;;;;;;;0.00;0.00;;;;;11.76;54.08;98375.34;4736966;28;103096;-74
2020/12/23 04:51:03;;;;;;;;;3.50;3.50;;;;;11.77;54.17;98374.31;4733217;28;102986;-74
2020/12/23 04:53:29;;;;;;;;;4.00;3.00;;;;;11.79;54.09;98369.53;4729514;28;104147;-74
2020/12/23 04:55:56;;;;;;;;;3.00;2.75;;;;;11.81;53.96;98367.41;4737355;28;103049;-74
2020/12/23 04:58:26;;;;;;;;;5.25;3.50;;;;;11.80;54.25;98355.75;4732930;29;102921;-73
2020/12/23 05:00:52;;;;;;;;;4.25;3.75;;;;;11.82;53.94;98369.91;4730110;28;103142;-74
2020/12/23 05:03:19;;;;;;;;;4.25;4.00;;;;;11.82;53.93;98364.50;4730884;28;103923;-73
2020/12/23 05:05:46;;;;;;;;;6.25;4.00;;;;;11.83;53.91;98366.16;4745510;28;102893;-74
2020/12/23 05:08:12;;;;;;;;;2.75;2.75;;;;;11.83;53.81;98355.34;4716383;29;103065;-74
2020/12/23 05:10:41;;;;;;;;;2.50;2.00;;;;;11.86;53.54;98343.22;4729390;28;103007;-74
2020/12/23 05:13:08;;;;;;;;;4.50;4.00;;;;;11.86;54.31;98335.09;4726078;28;103977;-74
2020/12/23 05:15:34;;;;;;;;;3.00;3.00;;;;;11.85;54.34;98346.97;4735010;28;102918;-74
2020/12/23 05:18:02;;;;;;;;;2.00;2.00;;;;;11.83;54.72;98349.09;4732707;28;103080;-74
2020/12/23 05:20:29;;;;;;;;;3.00;3.00;;;;;11.85;54.43;98353.22;4728333;29;104301;-74
2020/12/23 05:22:57;;;;;;;;;4.00;3.50;;;;;11.86;54.80;98354.06;4738256;28;109173;-74
2020/12/23 05:25:23;;;;;;;;;5.00;3.75;;;;;11.87;54.55;98344.91;4733905;28;103639;-79
2020/12/23 05:27:50;;;;;;;;;3.50;3.00;;;;;11.86;54.24;98341.34;4734805;28;103926;-79
2020/12/23 05:30:18;;;;;;;;;3.00;2.50;;;;;11.86;54.59;98354.06;4737919;28;102759;-79
2020/12/23 05:32:45;;;;;;;;;4.50;3.75;;;;;11.86;54.78;98364.91;4739803;28;104623;-79
2020/12/23 05:35:16;;;;;;;;;3.75;3.75;;;;;11.86;54.40;98359.47;4736236;28;102750;-79
2020/12/23 05:37:43;;;;;;;;;3.75;3.50;;;;;11.86;54.47;98354.91;4734914;28;102719;-79
2020/12/23 05:40:10;;;;;;;;;3.00;3.00;;;;;11.86;54.58;98359.47;4734593;28;102997;-79
2020/12/23 05:42:38;;;;;;;;;3.00;3.00;;;;;11.87;54.65;98358.44;4738316;28;104732;-79
2020/12/23 05:45:06;;;;;;;;;3.00;3.00;;;;;11.86;54.17;98360.31;4731878;28;102885;-79
2020/12/23 05:47:32;;;;;;;;;4.00;3.00;;;;;11.87;53.93;98353.03;4742375;28;102952;-79
2020/12/23 05:49:59;;;;;;;;;3.50;3.00;;;;;11.86;54.59;98349.47;4732629;29;105266;-78
2020/12/23 05:52:25;;;;;;;;;4.50;3.00;;;;;11.88;54.61;98347.41;4728020;28;109956;-79
2020/12/23 05:54:53;;;;;;;;;4.00;3.00;;;;;11.88;54.65;98354.69;4730952;28;102854;-79
2020/12/23 05:57:19;;;;;;;;;5.00;3.00;;;;;11.86;54.19;98356.78;4734495;28;102930;-79
2020/12/23 05:59:46;;;;;;;;;3.00;2.25;;;;;11.85;54.18;98361.34;4736741;28;102895;-79
2020/12/23 06:02:13;;;;;;;;;3.50;3.00;;;;;11.84;54.63;98358.88;4730904;28;103933;-79
2020/12/23 06:04:44;;;;;;;;;4.00;3.75;;;;;11.84;53.97;98351.56;4729328;28;103205;-79
2020/12/23 06:07:11;;;;;;;;;3.50;3.00;;;;;11.82;54.67;98363.66;4739781;28;102648;-79
2020/12/23 06:09:47;;;;;;;;;6.00;3.00;;;;;11.81;54.87;98359.28;4732917;28;102894;-79
2020/12/23 06:12:22;;;;;;;;;2.00;2.00;;;;;11.79;54.86;98353.28;4729781;28;106092;-79
2020/12/23 06:14:53;;;;;;;;;4.00;4.00;;;;;11.78;54.25;98357.03;4731942;28;102931;-79
2020/12/23 06:17:21;;;;;;;;;4.00;3.00;;;;;11.78;54.41;98360.56;4736348;28;102797;-79
2020/12/23 06:19:49;;;;;;;;;4.00;3.00;;;;;11.77;54.19;98361.59;4734795;28;102870;-79
2020/12/23 06:22:16;;;;;;;;;1.50;1.50;;;;;11.77;54.78;98366.19;4737775;28;104617;-78
2020/12/23 06:24:43;;;;;;;;;4.75;3.00;;;;;11.77;54.80;98369.72;4733705;28;103239;-74
2020/12/23 06:27:10;;;;;;;;;2.25;2.25;;;;;11.78;54.71;98370.56;4752015;28;103003;-74
2020/12/23 06:29:40;;;;;;;;;4.50;3.25;;;;;11.80;54.42;98373.88;4735410;28;102814;-74
2020/12/23 06:32:23;;;;;;;;;3.00;2.00;;;;;11.76;54.52;98365.34;4731329;28;103671;-74
2020/12/23 06:34:59;;;;;;;;;4.75;4.00;;;;;11.78;54.71;98368.69;4734689;28;102855;-74
2020/12/23 06:37:30;;;;;;;;;2.00;2.00;;;;;11.78;54.36;98375.97;4733553;28;102778;-74
2020/12/23 06:39:57;;;;;;;;;2.75;2.75;;;;;11.78;55.14;98370.56;4736634;29;102969;-74
2020/12/23 06:42:28;;;;;;;;;4.00;3.00;;;;;11.73;54.53;98375.78;4731455;28;103883;-74
2020/12/23 06:44:56;;;;;;;;;4.00;3.50;;;;;11.71;54.69;98369.75;4727689;28;102806;-74
2020/12/23 06:47:26;;;;;;;;;2.00;2.00;;;;;11.73;54.41;98373.91;4720858;28;102940;-74
2020/12/23 06:49:55;;;;;;;;;2.50;2.50;;;;;11.72;55.05;98368.66;4734943;28;102995;-74
2020/12/23 06:52:21;;;;;;;;;3.00;3.00;;;;;11.72;54.78;98368.66;4726826;28;103945;-74
2020/12/23 06:54:50;;;;;;;;;3.00;3.00;;;;;11.70;55.01;98365.34;4738201;28;102727;-74
2020/12/23 06:57:36;;;;;;;;;2.75;2.75;;;;;11.72;54.21;98369.53;4736041;28;102901;-74
2020/12/23 07:00:08;;;;;;;;;3.50;2.75;;;;;11.71;55.00;98383.28;4730264;28;103304;-74
2020/12/23 07:02:40;;;;;;;;;2.00;2.00;;;;;11.71;54.71;98389.50;4730866;29;103951;-74
2020/12/23 07:05:08;;;;;;;;;4.00;3.00;;;;;11.71;54.50;98384.09;4738788;28;102693;-74
2020/12/23 07:07:40;;;;;;;;;3.75;2.75;;;;;11.72;54.66;98390.34;4733939;28;102922;-74
2020/12/23 07:10:17;;;;;;;;;2.50;2.00;;;;;11.70;54.56;98384.31;4732789;28;102897;-74
2020/12/23 07:12:48;;;;;;;;;3.00;3.00;;;;;11.71;54.78;98383.28;4730617;28;104286;-74
2020/12/23 07:15:37;;;;;;;;;2.50;2.50;;;;;11.69;54.51;98385.34;4733700;28;102875;-74
2020/12/23 07:18:11;;;;;;;;;4.25;3.25;;;;;11.70;54.66;98381.59;4729280;28;103009;-74
2020/12/23 07:20:51;;;;;;;;;3.50;3.00;;;;;11.70;54.43;98381.59;4736450;28;102750;-72
2020/12/23 07:23:21;;;;;;;;;2.00;2.00;;;;;11.69;54.85;98379.94;4737391;28;104106;-77
2020/12/23 07:25:49;;;;;;;;;2.75;2.75;;;;;11.68;54.51;98383.69;4742769;28;102886;-74
2020/12/23 07:28:17;;;;;;;;;4.00;3.00;;;;;11.71;54.69;98399.53;4737780;28;103757;-75
2020/12/23 07:30:44;;;;;;;;;4.00;3.00;;;;;11.74;54.94;98393.72;4732526;29;103004;-75
2020/12/23 07:33:20;;;;;;;;;3.75;3.50;;;;;11.74;56.09;98391.84;4741205;28;103880;-75
2020/12/23 07:35:51;;;;;;;;;4.50;3.00;;;;;11.76;55.99;98391.59;4741030;28;102723;-75
2020/12/23 07:38:18;;;;;;;;;3.75;2.25;;;;;11.73;55.61;98387.47;4736263;28;102931;-75
2020/12/23 07:40:45;;;;;;;;;3.50;3.00;;;;;11.74;55.03;98393.72;4731895;28;102900;-75
2020/12/23 07:43:16;;;;;;;;;3.00;3.00;;;;;11.73;55.61;98381.19;4738121;28;105480;-75
2020/12/23 07:45:42;;;;;;;;;2.50;2.50;;;;;11.72;55.58;98382.22;4748714;28;102944;-75
2020/12/23 07:51:44;;;;;;;;;4.25;4.25;;;;;11.76;55.27;98375.34;4631897;29;103452;-75
2020/12/23 07:58:23;;;;;;;;;5.00;3.00;;;;;11.76;54.87;98373.47;4649167;28;102859;-75
2020/12/23 08:00:49;;;;;;;;;3.75;3.75;;;;;11.75;55.09;98379.97;4691523;28;104048;-75
2020/12/23 08:03:27;;;;;;;;;3.50;3.00;;;;;11.75;55.04;98379.13;4737708;28;103997;-75
2020/12/23 08:06:10;;;;;;;;;3.00;3.00;;;;;11.76;55.19;98395.16;4728767;28;104579;-75
2020/12/23 08:09:17;;;;;;;;;3.25;3.00;;;;;11.77;55.30;98385.16;4676057;29;102869;-75
2020/12/23 08:12:06;;;;;;;;;4.50;3.25;;;;;11.80;55.58;98395.53;4680024;28;102949;-75
2020/12/23 08:18:21;;;;;;;;;4.00;4.00;;;;;11.76;56.49;98378.06;4673411;28;107976;-75
2020/12/23 08:20:51;;;;;;;;;8.00;6.00;;;;;11.74;55.90;98383.72;4737939;28;102660;-75
2020/12/23 08:23:18;;;;;;;;;5.50;4.50;;;;;11.74;55.94;98389.13;4732548;29;102717;-75
2020/12/23 08:25:45;;;;;;;;;4.00;3.00;;;;;11.72;55.88;98395.75;4730808;28;104255;-75
2020/12/23 08:28:11;;;;;;;;;3.25;3.25;;;;;11.72;56.24;98402.03;4711276;28;104360;-75
2020/12/23 08:30:39;;;;;;;;;5.00;4.00;;;;;11.71;55.77;98396.81;4730832;28;102978;-75
2020/12/23 08:33:15;;;;;;;;;3.00;2.25;;;;;11.71;55.53;98394.13;4734629;28;106381;-75
2020/12/23 08:36:38;;;;;;;;;7.00;6.00;;;;;11.71;55.46;98396.81;4729095;28;105191;-75
2020/12/23 08:42:57;;;;;;;;;4.75;4.00;;;;;11.70;55.28;98392.44;4676110;28;103156;-75
2020/12/23 08:45:29;;;;;;;;;6.00;5.50;;;;;11.69;55.17;98385.34;4738416;28;102864;-75
2020/12/23 08:47:57;;;;;;;;;4.25;4.25;;;;;11.69;55.81;98396.19;4735823;28;102960;-75
2020/12/23 08:50:25;;;;;;;;;9.25;7.00;;;;;11.65;55.23;98393.09;4734447;28;104207;-75
2020/12/23 08:53:35;;;;;;;;;5.50;5.50;;;;;11.68;55.08;98373.69;4725990;28;105453;-75
2020/12/23 08:56:25;;;;;;;;;9.00;6.25;;;;;11.68;55.61;98376.41;4672523;29;103968;-75
2020/12/23 08:59:02;;;;;;;;;6.25;6.25;;;;;11.69;55.74;98394.31;4740337;28;107814;-75
2020/12/23 09:01:30;;;;;;;;;6.25;5.75;;;;;11.70;55.23;98397.84;4736048;29;109293;-75
2020/12/23 09:04:04;;;;;;;;;6.00;5.00;;;;;11.71;55.54;98394.91;4734267;28;106452;-75
2020/12/23 09:06:32;;;;;;;;;8.00;7.00;;;;;11.73;54.96;98400.16;4732771;28;102897;-75
2020/12/23 09:09:09;;;;;;;;;5.75;5.50;;;;;11.74;54.65;98382.88;4734168;29;102983;-75
2020/12/23 09:11:41;;;;;;;;;7.00;6.75;;;;;11.76;55.26;98381.59;4732121;28;109687;-75
2020/12/23 09:14:19;;;;;;;;;6.00;5.50;;;;;11.77;54.65;98371.59;4738348;28;102701;-75
2020/12/23 09:16:53;;;;;;;;;6.00;6.00;;;;;11.76;55.01;98376.19;4735631;28;102953;-75
2020/12/23 09:19:19;;;;;;;;;6.75;6.00;;;;;11.77;55.04;98377.03;4738746;28;103080;-75
2020/12/23 09:21:55;;;;;;;;;10.00;7.75;;;;;11.76;54.82;98372.63;4726749;28;103935;-75
2020/12/23 09:24:22;;;;;;;;;7.00;6.50;;;;;11.78;54.79;98373.28;4729643;28;102715;-75
2020/12/23 09:26:49;;;;;;;;;9.00;5.75;;;;;11.78;55.31;98365.16;4729164;28;103072;-75
2020/12/23 09:29:16;;;;;;;;;7.75;5.00;;;;;11.78;54.95;98370.56;4734473;28;104224;-75
2020/12/23 09:31:50;;;;;;;;;6.00;5.00;;;;;11.79;54.87;98374.94;4724827;28;104065;-75
2020/12/23 09:34:23;;;;;;;;;8.25;7.00;;;;;11.79;55.22;98372.22;4729967;28;102911;-75
2020/12/23 09:37:47;;;;;;;;;6.50;5.75;;;;;11.80;54.65;98354.91;4730483;29;102967;-75
2020/12/23 09:40:23;;;;;;;;;6.00;6.00;;;;;11.79;54.89;98356.81;4669872;28;102772;-75
2020/12/23 09:42:49;;;;;;;;;6.25;4.75;;;;;11.80;54.76;98360.31;4731253;28;104147;-75
2020/12/23 09:45:16;;;;;;;;;9.25;7.25;;;;;11.80;54.88;98354.91;4738707;28;102891;-75
2020/12/23 09:47:43;;;;;;;;;7.50;6.00;;;;;11.80;54.99;98344.91;4739417;28;102938;-75
2020/12/23 09:50:10;;;;;;;;;5.75;5.75;;;;;11.79;55.11;98339.72;4736739;29;102982;-75
2020/12/23 09:52:37;;;;;;;;;6.00;6.00;;;;;11.80;55.08;98344.06;4733293;28;104200;-75
2020/12/23 09:55:07;;;;;;;;;8.50;7.00;;;;;11.77;54.57;98345.34;4738427;28;102858;-75
2020/12/23 09:57:35;;;;;;;;;4.75;4.75;;;;;11.79;55.01;98347.84;4748090;28;102699;-75
2020/12/23 10:00:04;;;;;;;;;7.50;6.00;;;;;11.79;54.98;98340.56;4741212;28;102960;-75
2020/12/23 10:02:31;;;;;;;;;6.00;5.00;;;;;11.78;54.59;98341.59;4735222;28;107735;-75
2020/12/23 10:04:58;;;;;;;;;8.00;7.00;;;;;11.79;54.76;98342.44;4735556;28;102935;-75
2020/12/23 10:07:25;;;;;;;;;8.00;6.50;;;;;11.80;54.93;98335.94;4736390;28;102970;-75
2020/12/23 10:09:52;;;;;;;;;6.75;5.50;;;;;11.80;55.02;98334.06;4740468;28;102732;-75
2020/12/23 10:12:22;;;;;;;;;5.75;5.25;;;;;11.79;54.69;98332.44;4739251;28;104376;-75
2020/12/23 10:14:50;;;;;;;;;11.25;8.00;;;;;11.80;54.77;98322.41;4739663;28;102834;-75
2020/12/23 10:17:17;;;;;;;;;7.00;5.75;;;;;11.79;54.81;98328.88;4740147;28;102805;-75
2020/12/23 10:20:06;;;;;;;;;6.75;5.00;;;;;11.81;55.08;98322.19;4741163;28;102902;-75
2020/12/23 10:22:33;;;;;;;;;5.00;5.00;;;;;11.80;54.67;98311.56;4732850;28;108832;-75
2020/12/23 10:25:00;;;;;;;;;7.50;6.00;;;;;11.80;55.03;98322.41;4744186;28;102779;-74
2020/12/23 10:27:26;;;;;;;;;5.50;5.25;;;;;11.80;54.80;98323.25;4734387;28;103422;-75
2020/12/23 10:29:53;;;;;;;;;7.00;6.00;;;;;11.80;54.65;98314.28;4734300;28;102907;-75
2020/12/23 10:32:20;;;;;;;;;7.00;6.00;;;;;11.81;54.71;98321.38;4733327;28;104892;-75
2020/12/23 10:34:48;;;;;;;;;6.50;6.50;;;;;11.82;55.09;98325.75;4738063;29;102909;-75
2020/12/23 10:37:14;;;;;;;;;12.25;8.00;;;;;11.81;54.33;98321.38;4730334;28;102884;-75
2020/12/23 10:39:53;;;;;;;;;7.00;6.00;;;;;11.82;54.84;98323.88;4729709;28;103451;-75
2020/12/23 10:42:20;;;;;;;;;7.50;6.00;;;;;11.83;54.49;98316.56;4728592;28;104240;-75
2020/12/23 10:44:47;;;;;;;;;6.50;5.00;;;;;11.82;54.37;98318.44;4728208;28;103205;-75
2020/12/23 10:48:06;;;;;;;;;5.50;5.00;;;;;11.83;54.42;98324.69;4740272;28;104192;-75
2020/12/23 10:50:32;;;;;;;;;7.00;6.00;;;;;11.83;54.58;98322.00;4659801;29;109357;-75
2020/12/23 10:53:31;;;;;;;;;7.50;6.00;;;;;11.83;54.89;98322.00;4730019;29;104034;-75
2020/12/23 10:55:57;;;;;;;;;7.00;6.00;;;;;11.83;55.14;98324.69;4641014;29;102956;-75
2020/12/23 10:58:24;;;;;;;;;7.25;6.00;;;;;11.82;54.64;98320.31;4733326;28;102804;-75
2020/12/23 11:00:51;;;;;;;;;5.50;5.50;;;;;11.83;54.63;98325.53;4736364;28;102796;-75
2020/12/23 11:03:17;;;;;;;;;7.00;7.00;;;;;11.82;54.72;98321.16;4734351;28;104411;-75
2020/12/23 11:05:44;;;;;;;;;6.75;4.50;;;;;11.82;54.95;98309.50;4732284;28;102910;-75
2020/12/23 11:08:11;;;;;;;;;6.50;4.75;;;;;11.83;54.60;98311.16;4734910;28;104455;-75
2020/12/23 11:10:37;;;;;;;;;7.00;6.25;;;;;11.83;54.71;98316.56;4739714;28;102929;-75
2020/12/23 11:13:04;;;;;;;;;5.50;4.50;;;;;11.83;54.45;98317.41;4736903;28;104001;-75
2020/12/23 11:15:32;;;;;;;;;3.50;3.50;;;;;11.83;54.61;98322.81;4742021;28;102914;-75
2020/12/23 11:17:58;;;;;;;;;7.00;4.50;;;;;11.83;54.88;98320.13;4736882;28;103657;-75
2020/12/23 11:20:25;;;;;;;;;7.75;6.75;;;;;11.84;54.91;98319.03;4739440;28;103080;-75
2020/12/23 11:22:52;;;;;;;;;5.00;4.25;;;;;11.83;54.63;98305.75;4751009;28;103949;-75
2020/12/23 11:25:55;;;;;;;;;5.00;4.00;;;;;11.83;54.42;98306.56;4733960;28;102965;-75
2020/12/23 11:28:22;;;;;;;;;5.25;4.00;;;;;11.83;54.41;98295.75;4678096;28;102880;-75
2020/12/23 11:30:49;;;;;;;;;6.25;6.25;;;;;11.84;54.55;98302.00;4736054;28;102881;-75
2020/12/23 11:37:23;;;;;;;;;6.00;5.75;;;;;11.83;54.58;98297.63;4680250;28;102935;-75
2020/12/23 11:39:49;;;;;;;;;6.00;5.25;;;;;11.83;54.62;98298.44;4672318;29;102896;-75
2020/12/23 11:42:50;;;;;;;;;6.00;5.00;;;;;11.85;54.09;98306.34;4735480;28;104651;-75
2020/12/23 11:45:16;;;;;;;;;6.25;5.00;;;;;11.83;54.62;98303.88;4667124;28;108623;-75
2020/12/23 11:47:43;;;;;;;;;5.00;4.00;;;;;11.84;54.39;98300.09;4734392;28;103048;-75
2020/12/23 11:50:10;;;;;;;;;5.00;4.50;;;;;11.83;54.36;98295.75;4729694;28;102812;-75
2020/12/23 11:52:37;;;;;;;;;4.75;4.00;;;;;11.84;54.39;98283.03;4733927;28;102877;-75
2020/12/23 11:55:03;;;;;;;;;5.50;4.75;;;;;11.84;54.67;98277.59;4748400;28;104007;-77